Time;durP1;ratioP1;P1;durP2;ratioP2;P2;SDS_P1;SDS_P2;PMS_P1;PMS_P2;Temp;Humidity;BMP_temperature;BMP_pressure;BME280_temperature;BME280_humidity;BME280_pressure;Samples;Min_cycle;Max_cycle;Signal;HPM_P1;HPM_P2
2022/06/05 00:00:16;;;;;;;2.33;1.20;;;21.10;56.40;;;;;;4430613;32;20093;-68
2022/06/05 00:03:06;;;;;;;2.72;1.45;;;21.10;56.40;;;;;;4431227;32;20503;-69
2022/06/05 00:05:43;;;;;;;2.30;1.40;;;21.10;56.30;;;;;;4431161;32;20100;-67
2022/06/05 00:08:12;;;;;;;3.35;1.40;;;21.10;56.40;;;;;;4431090;32;20101;-69
2022/06/05 00:10:46;;;;;;;2.45;1.10;;;21.10;56.40;;;;;;4430527;32;20088;-69
2022/06/05 00:13:36;;;;;;;2.45;1.25;;;21.10;56.40;;;;;;4430721;32;20075;-69
2022/06/05 00:16:02;;;;;;;2.35;1.23;;;21.10;56.40;;;;;;4416666;32;20082;-69
2022/06/05 00:18:33;;;;;;;2.42;1.40;;;21.10;56.40;;;;;;4416845;32;20098;-69
2022/06/05 00:20:59;;;;;;;2.03;1.45;;;21.10;56.40;;;;;;4431232;32;20081;-69
2022/06/05 00:23:25;;;;;;;2.00;1.02;;;21.10;56.40;;;;;;4431379;32;20452;-69
2022/06/05 00:25:50;;;;;;;1.67;1.30;;;21.10;56.40;;;;;;4431634;32;20180;-68
2022/06/05 00:28:39;;;;;;;1.75;1.25;;;21.10;56.40;;;;;;4431411;32;20223;-69
2022/06/05 00:31:25;;;;;;;2.10;1.48;;;21.10;56.40;;;;;;4431413;32;20102;-69
2022/06/05 00:33:50;;;;;;;1.67;1.25;;;21.10;56.40;;;;;;4431321;32;20093;-69
2022/06/05 00:36:41;;;;;;;1.50;1.40;;;21.00;56.40;;;;;;4431312;32;20074;-69
2022/06/05 00:39:14;;;;;;;1.60;1.20;;;21.10;56.40;;;;;;4431103;32;20141;-69
2022/06/05 00:42:03;;;;;;;2.17;1.30;;;21.00;56.40;;;;;;4417450;32;20097;-69
2022/06/05 00:44:36;;;;;;;1.98;1.10;;;21.00;56.40;;;;;;4431149;32;20580;-69
2022/06/05 00:47:04;;;;;;;2.65;1.33;;;21.00;56.40;;;;;;4431402;32;20066;-68
2022/06/05 00:49:51;;;;;;;2.17;1.20;;;21.00;56.40;;;;;;4430754;32;20129;-69
2022/06/05 00:52:19;;;;;;;1.92;1.25;;;21.00;56.50;;;;;;4431339;32;20085;-69
2022/06/05 00:54:44;;;;;;;1.48;1.17;;;21.00;56.40;;;;;;4430682;32;20114;-68
2022/06/05 00:57:13;;;;;;;2.53;1.30;;;21.00;56.50;;;;;;4430866;32;20073;-68
2022/06/05 00:59:41;;;;;;;2.97;1.20;;;21.00;56.50;;;;;;4430607;32;20521;-70
2022/06/05 01:02:09;;;;;;;1.25;1.00;;;21.00;56.50;;;;;;4430540;32;20132;-68
2022/06/05 01:04:40;;;;;;;1.77;1.17;;;21.00;56.50;;;;;;4431076;32;20088;-69
2022/06/05 01:07:06;;;;;;;2.40;1.40;;;21.00;56.50;;;;;;4430943;32;20082;-69
2022/06/05 01:09:32;;;;;;;1.83;1.20;;;21.00;56.50;;;;;;4430118;32;20507;-69
2022/06/05 01:12:03;;;;;;;1.15;1.05;;;20.90;56.40;;;;;;4430716;32;20085;-69
2022/06/05 01:14:53;;;;;;;2.58;1.20;;;21.00;56.50;;;;;;4430536;32;20070;-68
2022/06/05 01:17:22;;;;;;;2.30;1.20;;;20.90;56.40;;;;;;4430736;32;20204;-68
2022/06/05 01:20:16;;;;;;;1.67;1.10;;;20.90;56.50;;;;;;4430356;32;20136;-68
2022/06/05 01:23:08;;;;;;;;;;;20.90;56.50;;;;;;4431523;32;20096;-69
2022/06/05 01:25:49;;;;;;;1.55;1.00;;;20.90;56.50;;;;;;4430582;32;19979;-69
2022/06/05 01:28:19;;;;;;;1.80;1.15;;;20.90;56.50;;;;;;4430535;32;20125;-69
2022/06/05 01:30:55;;;;;;;1.52;1.30;;;20.90;56.50;;;;;;4430485;32;20118;-68
2022/06/05 01:33:27;;;;;;;2.63;1.30;;;20.90;56.60;;;;;;4430680;32;20055;-69
2022/06/05 01:36:05;;;;;;;2.00;1.30;;;20.90;56.50;;;;;;4416701;32;20201;-69
2022/06/05 01:39:00;;;;;;;2.67;1.13;;;20.90;56.60;;;;;;4430088;32;20090;-69
2022/06/05 01:41:32;;;;;;;2.15;1.08;;;20.90;56.50;;;;;;4423105;32;20185;-69
2022/06/05 01:44:05;;;;;;;1.45;1.10;;;20.90;56.60;;;;;;4430764;32;20097;-69
2022/06/05 01:46:35;;;;;;;1.92;1.20;;;20.90;56.60;;;;;;4430267;32;20063;-69
2022/06/05 01:49:13;;;;;;;1.67;1.10;;;20.90;56.60;;;;;;4430267;32;20094;-69
2022/06/05 01:52:05;;;;;;;1.92;1.40;;;20.90;56.60;;;;;;4430134;32;20125;-68
2022/06/05 01:54:46;;;;;;;1.70;1.30;;;20.90;56.60;;;;;;4430140;32;20075;-69
2022/06/05 01:57:16;;;;;;;2.20;1.25;;;20.80;56.50;;;;;;4430425;32;20638;-68
2022/06/05 01:59:49;;;;;;;1.45;1.20;;;20.80;56.70;;;;;;4430437;32;20083;-68
2022/06/05 02:02:32;;;;;;;1.27;1.10;;;20.80;57.50;;;;;;4430318;32;20104;-69
2022/06/05 02:05:10;;;;;;;1.48;1.00;;;20.80;56.60;;;;;;4429743;32;20162;-69
2022/06/05 02:07:41;;;;;;;2.42;1.25;;;20.80;56.70;;;;;;4430023;32;20071;-69
2022/06/05 02:10:16;;;;;;;1.90;1.10;;;20.80;56.70;;;;;;4429970;32;20078;-69
2022/06/05 02:12:42;;;;;;;1.90;0.90;;;20.80;56.70;;;;;;4429984;32;20082;-68
2022/06/05 02:15:09;;;;;;;1.58;1.20;;;20.80;56.70;;;;;;4429834;32;20097;-69
2022/06/05 02:17:38;;;;;;;2.47;1.20;;;20.80;56.70;;;;;;4430114;32;20597;-69
2022/06/05 02:20:07;;;;;;;1.83;1.35;;;20.80;56.70;;;;;;4429524;32;20097;-68
2022/06/05 02:22:41;;;;;;;1.73;1.08;;;20.80;56.70;;;;;;4429879;32;20074;-68
2022/06/05 02:25:08;;;;;;;1.10;1.00;;;20.80;56.70;;;;;;4429466;32;20101;-68
2022/06/05 02:27:34;;;;;;;1.55;0.90;;;20.80;57.60;;;;;;4429691;32;20097;-68
2022/06/05 02:30:00;;;;;;;1.27;0.93;;;20.80;56.70;;;;;;4429807;32;20078;-69
2022/06/05 02:32:53;;;;;;;1.45;1.10;;;20.80;56.70;;;;;;4429316;32;20098;-69
2022/06/05 02:35:44;;;;;;;2.00;1.10;;;20.80;56.70;;;;;;4429934;32;20096;-69
2022/06/05 02:38:16;;;;;;;2.20;1.15;;;20.80;56.70;;;;;;4416075;32;20086;-69
2022/06/05 02:40:50;;;;;;;0.98;0.88;;;20.80;56.70;;;;;;4429707;32;20081;-69
2022/06/05 02:43:45;;;;;;;;;;;20.80;56.80;;;;;;4430525;32;20089;-71
2022/06/05 02:46:24;;;;;;;1.60;0.93;;;20.70;56.70;;;;;;4374664;32;20062;-71
2022/06/05 02:48:53;;;;;;;1.60;0.98;;;20.70;56.70;;;;;;4429629;32;20081;-70
2022/06/05 02:51:23;;;;;;;1.88;0.95;;;20.70;56.70;;;;;;4429604;32;20236;-69
2022/06/05 02:53:52;;;;;;;1.65;1.10;;;20.70;56.70;;;;;;4429834;32;20428;-69
2022/06/05 02:56:20;;;;;;;2.90;1.20;;;20.70;56.70;;;;;;4429499;32;20499;-69
2022/06/05 02:58:48;;;;;;;1.17;0.80;;;20.70;56.70;;;;;;4429576;32;20186;-69
2022/06/05 03:03:58;;;;;;;1.17;1.00;;;20.70;56.80;;;;;;4429590;32;20093;-69
2022/06/05 03:06:24;;;;;;;1.70;1.20;;;20.70;56.80;;;;;;4415764;32;20098;-71
2022/06/05 03:08:50;;;;;;;1.10;1.00;;;20.70;56.80;;;;;;4429149;32;20074;-69
2022/06/05 03:11:15;;;;;;;2.30;0.98;;;20.70;56.80;;;;;;4429638;32;20212;-69
2022/06/05 03:13:41;;;;;;;0.80;0.80;;;20.70;56.90;;;;;;4429340;32;20079;-69
2022/06/05 03:16:08;;;;;;;1.95;0.93;;;20.70;56.80;;;;;;4429273;32;20431;-69
2022/06/05 03:18:34;;;;;;;1.40;0.93;;;20.70;56.90;;;;;;4415416;32;20488;-69
2022/06/05 03:21:00;;;;;;;2.25;0.90;;;20.70;56.90;;;;;;4429669;32;20417;-69
2022/06/05 03:23:26;;;;;;;1.95;1.10;;;20.70;56.90;;;;;;4429290;32;20086;-69
2022/06/05 03:25:53;;;;;;;1.75;1.17;;;20.60;56.90;;;;;;4429309;32;20173;-69
2022/06/05 03:28:19;;;;;;;2.17;1.10;;;20.60;56.80;;;;;;4429588;32;20090;-69
2022/06/05 03:30:45;;;;;;;2.28;1.20;;;20.60;56.80;;;;;;4429542;32;20110;-69
2022/06/05 03:33:11;;;;;;;1.10;1.00;;;20.60;56.80;;;;;;4430720;32;20083;-69
2022/06/05 03:35:43;;;;;;;1.25;1.02;;;20.60;56.90;;;;;;4432084;32;20079;-69
2022/06/05 03:38:10;;;;;;;1.58;1.08;;;20.60;56.90;;;;;;4432241;32;20098;-69
2022/06/05 03:40:39;;;;;;;2.20;0.93;;;20.60;56.90;;;;;;4431952;32;20086;-69
2022/06/05 03:43:05;;;;;;;1.30;1.10;;;20.60;56.90;;;;;;4432088;32;20169;-70
2022/06/05 03:45:31;;;;;;;1.33;1.00;;;20.60;56.90;;;;;;4432153;32;20529;-69
2022/06/05 03:47:58;;;;;;;1.98;1.10;;;20.60;56.90;;;;;;4431737;32;20500;-69
2022/06/05 03:50:23;;;;;;;1.70;1.10;;;20.60;56.90;;;;;;4431918;32;20081;-69
2022/06/05 03:52:50;;;;;;;2.20;1.02;;;20.60;57.00;;;;;;4431678;32;20188;-69
2022/06/05 03:55:19;;;;;;;1.42;1.00;;;20.60;57.00;;;;;;4431666;32;20577;-69
2022/06/05 03:57:45;;;;;;;1.80;1.05;;;20.60;57.00;;;;;;4431772;32;20452;-69
2022/06/05 04:00:12;;;;;;;1.10;1.00;;;20.60;57.00;;;;;;4417930;32;20093;-69
2022/06/05 04:02:40;;;;;;;1.63;1.00;;;20.60;57.00;;;;;;4431424;32;20093;-69
2022/06/05 04:05:08;;;;;;;1.23;0.95;;;20.60;57.00;;;;;;4431699;32;20078;-69
2022/06/05 04:07:34;;;;;;;1.42;1.20;;;20.60;57.00;;;;;;4431667;32;20101;-69
2022/06/05 04:10:00;;;;;;;1.08;0.93;;;20.60;57.00;;;;;;4431615;32;20459;-69
2022/06/05 04:12:26;;;;;;;1.10;0.93;;;20.60;57.00;;;;;;4431629;32;20082;-69
2022/06/05 04:14:52;;;;;;;1.35;1.08;;;20.60;57.00;;;;;;4431532;32;20169;-69
2022/06/05 04:17:18;;;;;;;0.98;0.90;;;20.60;57.10;;;;;;4431507;32;20075;-70
2022/06/05 04:19:43;;;;;;;1.50;0.98;;;20.60;57.10;;;;;;4430986;32;20078;-69
2022/06/05 04:22:09;;;;;;;1.88;0.98;;;20.50;57.00;;;;;;4431438;32;20137;-69
2022/06/05 04:24:37;;;;;;;1.52;1.10;;;20.50;57.00;;;;;;4431425;32;20433;-69
2022/06/05 04:27:03;;;;;;;1.17;1.02;;;20.60;57.10;;;;;;4431281;32;20508;-69
2022/06/05 04:29:29;;;;;;;2.00;1.10;;;20.50;57.10;;;;;;4431395;32;20089;-69
2022/06/05 04:31:55;;;;;;;1.17;1.00;;;20.50;57.10;;;;;;4431372;32;20098;-67
2022/06/05 04:34:22;;;;;;;1.40;1.27;;;20.50;57.10;;;;;;4430930;32;20504;-69
2022/06/05 04:36:48;;;;;;;1.48;0.95;;;20.50;57.10;;;;;;4417437;32;20086;-69
2022/06/05 04:39:15;;;;;;;1.63;1.15;;;20.50;57.10;;;;;;4431331;32;20093;-69
2022/06/05 04:41:41;;;;;;;0.93;0.90;;;20.50;57.10;;;;;;4430934;32;20160;-69
2022/06/05 04:44:10;;;;;;;1.20;1.10;;;20.50;57.10;;;;;;4430093;32;20086;-69
2022/06/05 04:46:36;;;;;;;2.60;1.13;;;20.50;57.10;;;;;;4431020;32;20186;-69
2022/06/05 04:49:06;;;;;;;1.42;1.00;;;20.50;57.10;;;;;;4431137;32;20082;-69
2022/06/05 04:51:33;;;;;;;1.33;1.00;;;20.50;57.20;;;;;;4431086;32;20079;-69
2022/06/05 04:54:01;;;;;;;1.45;1.00;;;20.50;57.20;;;;;;4430605;32;20283;-69
2022/06/05 04:56:29;;;;;;;1.48;0.95;;;20.50;57.20;;;;;;4430946;32;20636;-69
2022/06/05 04:58:56;;;;;;;2.10;1.20;;;20.50;57.30;;;;;;4417086;32;20427;-69
2022/06/05 05:01:33;;;;;;;1.75;1.17;;;20.50;57.30;;;;;;4431012;32;20228;-69
2022/06/05 05:04:01;;;;;;;1.88;1.10;;;20.50;57.30;;;;;;4430929;32;20610;-69
2022/06/05 05:06:29;;;;;;;1.38;1.17;;;20.50;57.40;;;;;;4417203;32;20066;-69
2022/06/05 05:08:55;;;;;;;1.48;1.00;;;20.50;57.30;;;;;;4430848;32;20098;-69
2022/06/05 05:11:22;;;;;;;1.52;1.08;;;20.50;57.40;;;;;;4430651;32;20097;-69
2022/06/05 05:13:48;;;;;;;1.52;1.10;;;20.50;58.30;;;;;;4430703;32;20066;-69
2022/06/05 05:16:14;;;;;;;1.27;0.90;;;20.50;57.40;;;;;;4430296;32;20164;-69
2022/06/05 05:18:40;;;;;;;1.30;0.88;;;20.50;57.40;;;;;;4430201;32;20062;-69
2022/06/05 05:21:12;;;;;;;1.35;1.20;;;20.50;57.50;;;;;;4430400;32;20094;-69
2022/06/05 05:23:39;;;;;;;1.15;1.00;;;20.50;57.50;;;;;;4430885;32;20081;-69
2022/06/05 05:26:11;;;;;;;1.52;1.08;;;20.50;57.50;;;;;;4430223;32;20090;-69
2022/06/05 05:28:37;;;;;;;1.63;1.20;;;20.50;57.50;;;;;;4430618;32;20093;-69
2022/06/05 05:31:07;;;;;;;1.50;1.00;;;20.50;57.50;;;;;;4430443;32;20400;-69
2022/06/05 05:33:33;;;;;;;1.35;1.00;;;20.50;57.50;;;;;;4430138;32;20443;-69
2022/06/05 05:36:00;;;;;;;1.33;1.00;;;20.50;57.60;;;;;;4430352;32;20139;-69
2022/06/05 05:38:25;;;;;;;1.77;1.13;;;20.50;57.60;;;;;;4416334;32;20122;-71
2022/06/05 05:43:36;;;;;;;1.73;1.10;;;20.50;57.60;;;;;;4430359;32;20400;-69
2022/06/05 05:46:02;;;;;;;1.20;1.00;;;20.50;57.60;;;;;;4430426;32;20075;-69
2022/06/05 05:48:28;;;;;;;1.77;1.10;;;20.50;57.60;;;;;;4430167;32;20500;-69
2022/06/05 05:50:54;;;;;;;1.10;1.00;;;20.50;57.60;;;;;;4430417;32;20220;-69
2022/06/05 05:53:20;;;;;;;1.23;1.00;;;20.50;57.70;;;;;;4429996;32;20163;-69
2022/06/05 05:55:46;;;;;;;2.45;1.25;;;20.50;57.80;;;;;;4429786;32;20635;-69
2022/06/05 05:58:12;;;;;;;1.42;1.17;;;20.50;57.80;;;;;;4416331;32;20085;-69
2022/06/05 06:00:38;;;;;;;1.05;0.95;;;20.50;57.80;;;;;;4430008;32;20585;-69
2022/06/05 06:03:03;;;;;;;1.48;1.10;;;20.50;57.90;;;;;;4430007;32;20078;-69
2022/06/05 06:05:31;;;;;;;1.65;1.08;;;20.50;57.80;;;;;;4430212;32;20093;-68
2022/06/05 06:07:57;;;;;;;1.20;1.02;;;20.50;58.80;;;;;;4429630;32;20086;-69
2022/06/05 06:10:23;;;;;;;1.38;1.00;;;20.50;57.90;;;;;;4429582;32;20067;-69
2022/06/05 06:12:48;;;;;;;1.20;1.08;;;20.60;58.10;;;;;;4429769;32;20279;-69
2022/06/05 06:15:14;;;;;;;1.67;1.15;;;20.60;58.00;;;;;;4429840;32;20392;-68
2022/06/05 06:17:40;;;;;;;1.92;1.17;;;20.60;57.90;;;;;;4429473;32;20067;-69
2022/06/05 06:20:06;;;;;;;1.05;0.93;;;20.60;58.00;;;;;;4429644;32;20220;-69
2022/06/05 06:22:35;;;;;;;1.35;1.08;;;20.60;57.90;;;;;;4429527;32;20144;-69
2022/06/05 06:25:03;;;;;;;1.52;1.25;;;20.60;58.00;;;;;;4429515;32;20075;-69
2022/06/05 06:27:29;;;;;;;1.33;1.20;;;20.60;58.00;;;;;;4429629;32;20122;-69
2022/06/05 06:29:55;;;;;;;1.40;1.20;;;20.60;58.00;;;;;;4429765;32;20142;-71
2022/06/05 06:32:21;;;;;;;1.70;1.02;;;20.60;58.00;;;;;;4429519;32;20085;-70
2022/06/05 06:34:47;;;;;;;1.75;1.30;;;20.60;57.90;;;;;;4429628;32;20078;-69
2022/06/05 06:37:13;;;;;;;1.33;1.13;;;20.60;58.10;;;;;;4415703;32;20066;-69
2022/06/05 06:39:38;;;;;;;1.35;1.20;;;20.60;58.10;;;;;;4429509;32;20152;-69
2022/06/05 06:42:04;;;;;;;1.55;1.10;;;20.60;58.20;;;;;;4429282;32;20533;-70
2022/06/05 06:44:30;;;;;;;1.42;1.05;;;20.60;58.10;;;;;;4429829;32;20063;-69
2022/06/05 06:46:56;;;;;;;2.03;1.00;;;20.60;58.30;;;;;;4429121;32;20101;-69
2022/06/05 06:49:22;;;;;;;2.78;1.60;;;20.60;58.10;;;;;;4429486;32;20067;-69
2022/06/05 06:51:49;;;;;;;1.48;1.23;;;20.60;58.30;;;;;;4429536;32;20224;-69
2022/06/05 06:54:15;;;;;;;1.98;1.77;;;20.60;58.80;;;;;;4429507;32;20062;-69
2022/06/05 06:56:42;;;;;;;2.95;1.83;;;20.60;58.60;;;;;;4429452;32;20156;-69
2022/06/05 06:59:08;;;;;;;1.98;1.60;;;20.60;58.60;;;;;;4429408;32;20132;-69
2022/06/05 07:01:34;;;;;;;2.60;1.70;;;20.60;58.60;;;;;;4429159;32;20078;-69
2022/06/05 07:04:00;;;;;;;3.47;1.90;;;20.60;58.60;;;;;;4429344;32;20129;-69
2022/06/05 07:06:26;;;;;;;4.68;2.25;;;20.60;58.50;;;;;;4429259;32;20182;-69
2022/06/05 07:08:52;;;;;;;2.55;2.00;;;20.60;58.70;;;;;;4417845;32;20070;-69
2022/06/05 07:11:18;;;;;;;4.43;2.38;;;20.60;58.60;;;;;;4432245;32;20094;-69
2022/06/05 07:13:44;;;;;;;2.75;2.30;;;20.60;58.80;;;;;;4432150;32;20082;-70
2022/06/05 07:16:11;;;;;;;4.40;2.20;;;20.60;59.00;;;;;;4431831;32;20066;-69
2022/06/05 07:18:38;;;;;;;4.05;2.50;;;20.60;59.00;;;;;;4431621;32;20078;-69
2022/06/05 07:21:22;;;;;;;4.38;2.40;;;20.70;59.00;;;;;;4432519;32;20077;-69
2022/06/05 07:23:48;;;;;;;4.47;2.22;;;20.70;58.90;;;;;;4431928;32;20537;-69
2022/06/05 07:26:17;;;;;;;3.10;2.03;;;20.70;58.90;;;;;;4432148;32;20098;-69
2022/06/05 07:28:42;;;;;;;4.63;2.58;;;20.70;58.90;;;;;;4432451;32;20067;-69
2022/06/05 07:31:10;;;;;;;2.53;1.77;;;20.70;58.80;;;;;;4432223;32;20220;-69
2022/06/05 07:33:37;;;;;;;4.88;2.67;;;20.80;58.90;;;;;;4431728;32;20111;-67
2022/06/05 07:36:06;;;;;;;4.25;2.63;;;20.80;58.90;;;;;;4432225;32;20543;-68
2022/06/05 07:38:34;;;;;;;3.78;2.30;;;20.80;59.00;;;;;;4431956;32;20168;-69
2022/06/05 07:41:00;;;;;;;3.25;2.03;;;20.80;59.10;;;;;;4431977;32;20605;-69
2022/06/05 07:43:26;;;;;;;4.25;2.53;;;20.80;59.00;;;;;;4431606;32;20567;-69
2022/06/05 07:45:52;;;;;;;4.25;2.50;;;20.90;59.10;;;;;;4431495;32;20105;-68
2022/06/05 07:48:19;;;;;;;5.50;3.00;;;20.90;59.00;;;;;;4431838;32;20097;-69
2022/06/05 07:56:16;;;;;;;4.50;2.80;;;21.00;58.90;;;;;;4431788;32;20089;-69
2022/06/05 07:58:42;;;;;;;3.85;3.08;;;21.10;58.90;;;;;;4431932;32;20384;-68
2022/06/05 08:01:08;;;;;;;4.55;2.78;;;21.10;58.90;;;;;;4431712;32;20205;-68
2022/06/05 08:03:35;;;;;;;5.90;2.72;;;21.10;58.80;;;;;;4431640;32;20110;-68
2022/06/05 08:06:01;;;;;;;3.97;2.47;;;21.10;58.70;;;;;;4431577;32;20213;-69
2022/06/05 08:08:27;;;;;;;4.43;2.72;;;21.20;58.70;;;;;;4431627;32;20153;-69
2022/06/05 08:10:53;;;;;;;5.88;2.95;;;21.20;58.60;;;;;;4431279;32;20200;-68
2022/06/05 08:13:19;;;;;;;3.45;2.90;;;21.20;58.60;;;;;;4431420;32;20388;-69
2022/06/05 08:15:45;;;;;;;7.32;3.35;;;21.30;58.60;;;;;;4431415;32;20078;-69
2022/06/05 08:18:11;;;;;;;3.88;2.92;;;21.30;58.60;;;;;;4431216;32;20551;-68
2022/06/05 08:20:37;;;;;;;6.07;2.50;;;21.30;58.50;;;;;;4417478;32;20074;-68
2022/06/05 08:23:03;;;;;;;3.67;2.83;;;21.30;58.40;;;;;;4431140;32;20074;-72
2022/06/05 08:25:29;;;;;;;3.33;2.90;;;21.30;58.40;;;;;;4430256;32;20085;-68
2022/06/05 08:27:55;;;;;;;3.25;2.60;;;21.40;58.40;;;;;;4431546;32;20078;-68
2022/06/05 08:30:21;;;;;;;3.53;3.03;;;21.40;58.30;;;;;;4430940;32;20101;-68
2022/06/05 08:32:47;;;;;;;6.00;3.20;;;21.40;58.30;;;;;;4431066;32;20078;-68
2022/06/05 08:35:13;;;;;;;3.45;2.80;;;21.40;58.20;;;;;;4431244;32;20213;-68
2022/06/05 08:43:27;;;;;;;3.20;2.70;;;21.50;58.20;;;;;;4431346;32;20094;-68
2022/06/05 08:46:07;;;;;;;4.35;2.70;;;21.50;58.10;;;;;;4431263;32;20496;-69
2022/06/05 08:48:37;;;;;;;4.45;3.00;;;21.50;58.20;;;;;;4430988;32;20081;-68
2022/06/05 08:51:40;;;;;;;3.72;2.80;;;21.50;58.20;;;;;;4430721;32;20200;-68
2022/06/05 08:54:15;;;;;;;3.28;2.80;;;21.50;58.20;;;;;;4431066;32;20098;-68
2022/06/05 08:56:45;;;;;;;4.50;2.53;;;21.50;58.20;;;;;;4430678;32;20086;-68
2022/06/05 08:59:24;;;;;;;3.92;2.75;;;21.50;58.20;;;;;;4430921;32;20081;-68
2022/06/05 09:02:19;;;;;;;4.05;3.05;;;21.50;58.20;;;;;;4430711;32;20601;-69
2022/06/05 09:05:05;;;;;;;4.18;2.95;;;21.50;58.20;;;;;;4430929;32;20066;-69
2022/06/05 09:07:40;;;;;;;3.35;3.05;;;21.50;58.20;;;;;;4430945;32;20075;-69
2022/06/05 09:10:08;;;;;;;4.10;3.22;;;21.50;58.30;;;;;;4416846;32;20243;-69
2022/06/05 09:13:16;;;;;;;5.47;3.40;;;21.50;58.30;;;;;;4430526;32;20074;-69
2022/06/05 09:15:56;;;;;;;4.70;3.90;;;21.50;58.30;;;;;;4368072;32;20187;-70
2022/06/05 09:18:23;;;;;;;3.78;3.42;;;21.50;58.40;;;;;;4423679;32;20086;-69
2022/06/05 09:20:55;;;;;;;3.42;3.03;;;21.50;58.40;;;;;;4429693;32;20427;-69
2022/06/05 09:23:44;;;;;;;16.55;3.50;;;21.60;58.50;;;;;;4430750;32;20075;-69
2022/06/05 09:26:16;;;;;;;4.00;3.58;;;21.60;58.70;;;;;;4430836;32;20066;-69
2022/06/05 09:28:54;;;;;;;4.35;3.88;;;21.60;58.60;;;;;;4430615;32;20078;-69
2022/06/05 09:31:37;;;;;;;6.45;3.65;;;21.70;58.70;;;;;;4415838;32;20101;-69
2022/06/05 09:34:27;;;;;;;5.88;3.80;;;21.70;58.70;;;;;;4430390;32;20067;-68
2022/06/05 09:37:22;;;;;;;4.25;3.85;;;21.70;58.70;;;;;;4430135;32;20090;-68
2022/06/05 09:40:04;;;;;;;7.35;4.00;;;21.70;58.80;;;;;;4430320;32;20215;-69
2022/06/05 09:42:39;;;;;;;6.03;4.15;;;21.70;58.80;;;;;;4430540;32;20162;-69
2022/06/05 09:45:36;;;;;;;4.30;3.63;;;21.70;58.70;;;;;;4430326;32;20114;-69
2022/06/05 09:48:49;;;;;;;5.20;3.35;;;21.80;58.90;;;;;;4430471;32;20138;-69
2022/06/05 09:51:17;;;;;;;5.40;3.83;;;21.80;58.90;;;;;;4382845;32;20101;-69
2022/06/05 09:54:02;;;;;;;4.13;3.70;;;21.80;58.70;;;;;;4430057;32;20212;-69
2022/06/05 09:59:41;;;;;;;4.57;3.97;;;21.80;58.70;;;;;;4429975;32;20408;-68
2022/06/05 10:02:08;;;;;;;6.65;3.75;;;21.80;58.80;;;;;;4430072;32;20094;-69
2022/06/05 10:04:35;;;;;;;4.43;3.58;;;21.80;58.90;;;;;;4430145;32;20078;-69
2022/06/05 10:07:15;;;;;;;4.88;3.90;;;21.80;58.80;;;;;;4429705;32;20540;-69
2022/06/05 10:09:45;;;;;;;6.13;3.58;;;21.90;58.80;;;;;;4429734;32;20086;-69
2022/06/05 10:12:49;;;;;;;6.10;3.85;;;21.90;58.70;;;;;;4429980;32;20523;-69
2022/06/05 10:15:15;;;;;;;;;;;22.00;58.70;;;;;;4395884;32;20522;-69
2022/06/05 10:17:54;;;;;;;6.00;3.42;;;22.00;58.70;;;;;;4429776;32;19963;-69
2022/06/05 10:20:36;;;;;;;3.60;3.30;;;22.00;58.60;;;;;;4429638;32;20093;-68
2022/06/05 10:23:35;;;;;;;4.65;3.90;;;22.00;58.60;;;;;;4429860;32;20618;-69
2022/06/05 10:26:20;;;;;;;7.13;3.50;;;22.00;58.50;;;;;;4429309;32;20067;-69
2022/06/05 10:28:49;;;;;;;5.47;3.58;;;22.00;58.30;;;;;;4429876;32;20078;-70
2022/06/05 10:31:26;;;;;;;3.67;3.10;;;22.00;58.20;;;;;;4429386;32;20168;-69
2022/06/05 10:34:13;;;;;;;3.70;3.40;;;22.00;58.10;;;;;;4429624;32;20502;-69
2022/06/05 10:36:58;;;;;;;4.70;3.80;;;22.00;58.10;;;;;;4429707;32;20082;-69
2022/06/05 10:39:58;;;;;;;4.72;3.70;;;22.00;58.10;;;;;;4429698;32;20074;-68
2022/06/05 10:42:34;;;;;;;4.50;3.85;;;22.10;58.10;;;;;;4431269;32;20093;-69
2022/06/05 10:45:41;;;;;;;4.03;3.40;;;22.10;58.10;;;;;;4432871;32;20209;-69
2022/06/05 10:48:26;;;;;;;5.05;3.75;;;22.10;58.00;;;;;;4432871;32;20095;-68
2022/06/05 10:51:23;;;;;;;6.47;3.47;;;22.10;57.90;;;;;;4432553;32;20132;-68
2022/06/05 10:54:11;;;;;;;5.13;3.72;;;22.10;57.90;;;;;;4433029;32;20516;-69
2022/06/05 10:56:52;;;;;;;5.78;3.85;;;22.10;57.80;;;;;;4418727;32;20078;-69
2022/06/05 11:00:06;;;;;;;5.97;3.40;;;22.10;57.80;;;;;;4432748;32;20066;-69
2022/06/05 11:03:11;;;;;;;4.50;3.83;;;22.10;57.80;;;;;;4398155;32;20067;-69
2022/06/05 11:06:14;;;;;;;5.95;3.33;;;22.10;57.80;;;;;;4418426;32;20113;-68
2022/06/05 11:08:57;;;;;;;4.10;3.70;;;22.10;57.70;;;;;;4432562;32;20078;-68
2022/06/05 11:15:08;;;;;;;5.15;3.60;;;22.20;57.70;;;;;;4432418;32;20086;-69
2022/06/05 11:17:46;;;;;;;4.32;3.78;;;22.20;57.70;;;;;;4401223;32;20541;-69
2022/06/05 11:20:16;;;;;;;4.57;3.60;;;22.20;57.60;;;;;;4418365;32;20096;-69
2022/06/05 11:22:53;;;;;;;4.30;3.60;;;22.20;57.70;;;;;;4432081;32;20141;-69
2022/06/05 11:25:48;;;;;;;4.03;3.63;;;22.20;57.70;;;;;;4432260;32;20224;-69
2022/06/05 11:28:32;;;;;;;4.00;3.60;;;22.20;57.80;;;;;;4376837;32;20185;-69
2022/06/05 11:31:27;;;;;;;4.95;3.75;;;22.20;57.80;;;;;;4432473;32;20129;-69
2022/06/05 11:34:00;;;;;;;4.85;3.67;;;22.20;57.80;;;;;;4418374;32;20081;-68
2022/06/05 11:36:37;;;;;;;4.75;4.05;;;22.20;57.90;;;;;;4432126;32;20137;-69
2022/06/05 11:39:26;;;;;;;5.05;3.90;;;22.20;58.00;;;;;;4432075;32;20504;-68
2022/06/05 11:41:58;;;;;;;6.47;4.03;;;22.20;58.10;;;;;;4432034;32;20074;-68
2022/06/05 11:44:37;;;;;;;4.53;3.53;;;22.30;58.10;;;;;;4431865;32;20186;-68
2022/06/05 11:47:10;;;;;;;4.47;3.88;;;22.30;58.20;;;;;;4432025;32;20100;-68
2022/06/05 11:49:57;;;;;;;6.53;3.92;;;22.20;58.20;;;;;;4431922;32;20101;-68
2022/06/05 11:52:41;;;;;;;6.07;4.28;;;22.20;58.30;;;;;;4431878;32;20066;-68
2022/06/05 11:55:13;;;;;;;4.63;3.78;;;22.20;58.40;;;;;;4431598;32;20117;-68
2022/06/05 11:57:49;;;;;;;5.63;3.88;;;22.20;58.40;;;;;;4431765;32;20082;-69
2022/06/05 12:00:28;;;;;;;4.53;3.50;;;22.30;58.50;;;;;;4431930;32;20071;-69
2022/06/05 12:03:15;;;;;;;5.18;4.00;;;22.30;58.60;;;;;;4431723;32;20156;-69
2022/06/05 12:05:51;;;;;;;5.05;3.75;;;22.20;58.70;;;;;;4430686;32;20543;-69
2022/06/05 12:08:37;;;;;;;6.43;3.53;;;22.30;58.70;;;;;;4431781;32;20211;-69
2022/06/05 12:11:02;;;;;;;7.13;4.05;;;22.30;58.80;;;;;;4431442;32;20208;-69
2022/06/05 12:13:44;;;;;;;9.13;4.18;;;22.30;58.70;;;;;;4431697;32;20144;-69
2022/06/05 12:16:19;;;;;;;5.15;3.88;;;22.30;58.70;;;;;;4431718;32;20088;-69
2022/06/05 12:18:49;;;;;;;7.57;3.90;;;22.30;58.70;;;;;;4431090;32;20581;-69
2022/06/05 12:21:22;;;;;;;6.40;3.90;;;22.30;58.70;;;;;;4417787;32;20514;-69
2022/06/05 12:24:00;;;;;;;6.10;3.92;;;22.30;58.60;;;;;;4431530;32;20070;-69
2022/06/05 12:26:37;;;;;;;6.32;3.60;;;22.30;58.70;;;;;;4431164;32;20163;-69
2022/06/05 12:29:31;;;;;;;5.72;3.65;;;22.30;58.70;;;;;;4431670;32;20478;-69
2022/06/05 12:32:05;;;;;;;5.90;3.40;;;22.30;58.70;;;;;;4431421;32;20114;-69
2022/06/05 12:35:04;;;;;;;5.95;3.75;;;22.30;58.70;;;;;;4431011;32;20416;-69
2022/06/05 12:37:51;;;;;;;6.68;4.13;;;22.30;58.70;;;;;;4428402;32;20169;-69
2022/06/05 12:40:22;;;;;;;5.00;3.72;;;22.30;58.70;;;;;;4431385;32;20555;-69
2022/06/05 12:43:02;;;;;;;4.35;3.80;;;22.30;58.80;;;;;;4431231;32;20070;-69
2022/06/05 12:45:31;;;;;;;4.93;4.00;;;22.30;58.80;;;;;;4418077;32;20411;-69
2022/06/05 12:48:21;;;;;;;6.65;4.13;;;22.30;58.90;;;;;;4431020;32;20133;-69
2022/06/05 12:51:12;;;;;;;4.88;3.78;;;22.30;59.10;;;;;;4431404;32;20204;-69
2022/06/05 12:54:23;;;;;;;4.25;3.58;;;22.30;59.10;;;;;;4430669;32;20142;-69
2022/06/05 12:56:55;;;;;;;6.28;3.60;;;22.30;59.00;;;;;;4368520;32;20635;-69
2022/06/05 12:59:46;;;;;;;3.97;3.63;;;22.30;58.90;;;;;;4356300;32;20075;-69
2022/06/05 13:02:34;;;;;;;4.72;3.55;;;22.40;58.90;;;;;;4410492;32;20114;-71
2022/06/05 13:05:27;;;;;;;6.35;3.58;;;22.30;58.70;;;;;;4430135;32;20176;-70
2022/06/05 13:08:05;;;;;;;6.75;3.65;;;22.30;58.80;;;;;;4422744;32;20074;-69
2022/06/05 13:10:45;;;;;;;6.10;3.83;;;22.30;58.70;;;;;;4430536;32;20074;-70
2022/06/05 13:13:40;;;;;;;5.15;3.30;;;22.30;58.70;;;;;;4404685;32;20177;-69
2022/06/05 13:16:17;;;;;;;5.18;3.78;;;22.30;58.60;;;;;;4430591;32;20086;-70
2022/06/05 13:18:52;;;;;;;4.78;3.30;;;22.30;58.50;;;;;;4430427;32;20101;-69
2022/06/05 13:21:46;;;;;;;6.05;3.40;;;22.30;58.60;;;;;;4430881;32;20220;-69
2022/06/05 13:24:32;;;;;;;5.45;4.10;;;22.40;58.60;;;;;;4430912;32;20488;-68
2022/06/05 13:27:39;;;;;;;6.03;3.85;;;22.30;58.50;;;;;;4431032;32;20208;-69
2022/06/05 13:30:13;;;;;;;5.60;3.72;;;22.30;58.30;;;;;;4401135;32;20098;-69
2022/06/05 13:33:08;;;;;;;7.28;3.45;;;22.30;58.40;;;;;;4430344;32;20074;-69
2022/06/05 13:35:42;;;;;;;7.90;4.03;;;22.30;58.40;;;;;;4430298;32;20101;-69
2022/06/05 13:38:33;;;;;;;6.05;3.97;;;22.30;58.80;;;;;;4416217;32;20081;-69
2022/06/05 13:41:12;;;;;;;7.57;4.20;;;22.30;59.40;;;;;;4430568;32;20078;-70
2022/06/05 13:43:40;;;;;;;5.60;4.32;;;22.30;59.40;;;;;;4430503;32;20504;-69
2022/06/05 13:46:27;;;;;;;5.72;3.75;;;22.30;59.70;;;;;;4430101;32;20082;-70